Time;durP1;ratioP1;P1;durP2;ratioP2;P2;SDS_P1;SDS_P2;PMS_P1;PMS_P2;Temp;Humidity;BMP_temperature;BMP_pressure;BME280_temperature;BME280_humidity;BME280_pressure;Samples;Min_cycle;Max_cycle;Signal;HPM_P1;HPM_P2
2023/01/01 00:01:22;;;;;;;;;;;;;;;13.67;65.02;98541.47;7388582;19;19948;-84
2023/01/01 00:03:52;;;;;;;;;;;;;;;13.70;64.91;98543.78;7385775;19;20359;-83
2023/01/01 00:06:18;;;;;;;;;;;;;;;13.69;64.97;98539.44;7387770;19;19944;-83
2023/01/01 00:08:45;;;;;;;;;;;;;;;13.60;64.98;98536.00;7389336;19;20397;-83
2023/01/01 00:11:12;;;;;;;;;;;;;;;13.67;64.88;98541.47;7393571;19;19951;-81
2023/01/01 00:13:39;;;;;;;;;;;;;;;13.78;64.46;98543.75;7387567;19;19926;-77
2023/01/01 00:16:06;;;;;;;;;;;;;;;13.74;64.11;98545.09;7388952;19;19922;-82
2023/01/01 00:18:33;;;;;;;;;;;;;;;13.74;64.62;98545.09;7386664;19;19926;-81
2023/01/01 00:21:03;;;;;;;;;;;;;;;13.65;64.79;98549.59;7391678;19;19923;-80
2023/01/01 00:23:30;;;;;;;;;;;;;;;13.65;64.51;98549.59;7386115;19;20253;-83
2023/01/01 00:25:57;;;;;;;;;;;;;;;13.49;65.12;98550.47;7390099;19;20352;-82
2023/01/01 00:28:23;;;;;;;;;;;;;;;13.57;65.19;98553.13;7389118;19;19930;-83
2023/01/01 00:30:50;;;;;;;;;;;;;;;13.45;65.43;98545.66;7390294;19;19926;-84
2023/01/01 00:33:16;;;;;;;;;;;;;;;13.47;65.40;98546.34;7367381;19;19923;-69
2023/01/01 00:35:43;;;;;;;;;;;;;;;13.48;65.16;98535.53;7387026;19;19927;-69
2023/01/01 00:38:10;;;;;;;;;;;;;;;13.46;65.42;98545.50;7388578;19;19950;-69
2023/01/01 00:40:36;;;;;;;;;;;;;;;13.33;65.61;98534.56;7389594;19;20412;-69
2023/01/01 00:43:03;;;;;;;;;;;;;;;13.35;65.54;98543.22;7388863;19;19943;-70
2023/01/01 00:45:29;;;;;;;;;;;;;;;13.31;65.77;98542.72;7389454;19;19927;-70
2023/01/01 00:47:56;;;;;;;;;;;;;;;13.37;65.45;98546.50;7388406;19;19915;-69
2023/01/01 00:50:22;;;;;;;;;;;;;;;13.31;65.78;98547.19;7390623;19;20339;-70
2023/01/01 00:52:49;;;;;;;;;;;;;;;13.31;65.68;98541.88;7387414;19;19919;-69
2023/01/01 00:55:16;;;;;;;;;;;;;;;13.23;65.67;98552.50;7386290;19;19923;-69
2023/01/01 00:57:42;;;;;;;;;;;;;;;13.18;65.94;98559.13;7389291;19;19915;-70
2023/01/01 01:00:09;;;;;;;;;;;;;;;13.28;65.92;98558.16;7388965;19;20407;-70
2023/01/01 01:02:36;;;;;;;;;;;;;;;13.37;65.80;98555.31;7389375;19;19982;-69
2023/01/01 01:05:03;;;;;;;;;;;;;;;13.25;66.12;98556.66;7389430;19;19940;-69
2023/01/01 01:07:36;;;;;;;;;;;;;;;13.44;65.35;98544.84;7381485;19;20016;-70
2023/01/01 01:10:03;;;;;;;;;;;;;;;13.50;65.09;98549.47;7384330;19;19915;-69
2023/01/01 01:12:30;;;;;;;;;;;;;;;13.68;64.52;98551.09;7382443;19;19926;-70
2023/01/01 01:14:56;;;;;;;;;;;;;;;13.69;64.12;98547.41;7387873;19;19922;-70
2023/01/01 01:17:23;;;;;;;;;;;;;;;13.75;64.00;98541.44;7388683;19;19918;-69
2023/01/01 01:19:49;;;;;;;;;;;;;;;13.74;63.99;98545.91;7388997;19;19932;-69
2023/01/01 01:22:16;;;;;;;;;;;;;;;13.70;63.96;98552.59;7386463;19;19926;-70
2023/01/01 01:24:45;;;;;;;;;;;;;;;13.67;64.00;98552.09;7385141;19;19927;-70
2023/01/01 01:27:12;;;;;;;;;;;;;;;13.82;63.62;98550.38;7377627;19;19919;-70
2023/01/01 01:29:41;;;;;;;;;;;;;;;13.89;63.50;98551.34;7382146;19;19919;-70
2023/01/01 01:32:11;;;;;;;;;;;;;;;13.91;63.32;98559.97;7382281;19;19978;-69
2023/01/01 01:34:37;;;;;;;;;;;;;;;14.00;62.77;98555.44;7382086;19;19915;-70
2023/01/01 01:37:04;;;;;;;;;;;;;;;13.99;63.00;98553.81;7387160;19;19927;-70
2023/01/01 01:39:30;;;;;;;;;;;;;;;13.89;62.67;98551.34;7387292;19;20352;-69
2023/01/01 01:41:57;;;;;;;;;;;;;;;13.86;62.58;98549.03;7383248;19;20352;-69
2023/01/01 01:44:42;;;;;;;;;;;;;;;13.90;62.77;98553.03;7389564;19;19922;-69
2023/01/01 01:47:18;;;;;;;;;;;;;;;13.92;62.96;98558.97;7389757;19;19994;-69
2023/01/01 01:49:45;;;;;;;;;;;;;;;13.71;63.51;98554.22;7388353;19;19964;-69
2023/01/01 01:52:11;;;;;;;;;;;;;;;13.51;64.32;98556.47;7386121;19;20349;-70
2023/01/01 01:54:40;;;;;;;;;;;;;;;13.45;64.51;98556.28;7390156;19;19931;-69
2023/01/01 01:57:07;;;;;;;;;;;;;;;13.37;65.08;98563.28;7384381;19;20336;-69
2023/01/01 01:59:35;;;;;;;;;;;;;;;13.24;65.19;98565.59;7386683;19;20330;-69
2023/01/01 02:02:01;;;;;;;;;;;;;;;13.08;65.63;98568.28;7378674;19;20366;-69
2023/01/01 02:04:28;;;;;;;;;;;;;;;13.00;65.73;98565.63;7387830;19;20359;-69
2023/01/01 02:06:54;;;;;;;;;;;;;;;12.87;66.17;98568.78;7388216;19;19922;-69
2023/01/01 02:09:21;;;;;;;;;;;;;;;12.67;66.32;98577.06;7395892;19;19923;-69
2023/01/01 02:11:47;;;;;;;;;;;;;;;12.61;66.61;98574.22;7395625;19;19948;-69
2023/01/01 02:14:14;;;;;;;;;;;;;;;12.51;67.08;98577.03;7394039;19;19925;-69
2023/01/01 02:16:42;;;;;;;;;;;;;;;12.46;67.29;98571.38;7393673;19;19927;-69
2023/01/01 02:19:31;;;;;;;;;;;;;;;12.42;67.36;98572.69;7394333;19;19930;-69
2023/01/01 02:22:01;;;;;;;;;;;;;;;12.31;67.88;98581.78;7392594;19;19922;-69
2023/01/01 02:24:34;;;;;;;;;;;;;;;12.32;68.27;98582.63;7393451;19;19958;-69
2023/01/01 02:27:03;;;;;;;;;;;;;;;12.44;67.85;98582.16;7392990;19;19948;-69
2023/01/01 02:29:36;;;;;;;;;;;;;;;12.54;67.71;98586.50;7392367;19;19919;-69
2023/01/01 02:32:15;;;;;;;;;;;;;;;12.59;67.25;98584.19;7385127;19;20286;-69
2023/01/01 02:34:52;;;;;;;;;;;;;;;12.65;67.39;98572.91;7396735;19;19923;-69
2023/01/01 02:37:19;;;;;;;;;;;;;;;12.76;66.27;98567.28;7392035;19;20438;-69
2023/01/01 02:39:47;;;;;;;;;;;;;;;12.83;66.80;98572.78;7395267;19;19948;-69
2023/01/01 02:42:14;;;;;;;;;;;;;;;12.82;66.20;98569.28;7394554;19;19948;-69
2023/01/01 02:44:41;;;;;;;;;;;;;;;12.84;66.06;98572.59;7396427;19;19948;-69
2023/01/01 02:47:09;;;;;;;;;;;;;;;12.89;65.98;98580.88;7392630;19;19919;-69
2023/01/01 02:49:37;;;;;;;;;;;;;;;12.83;66.23;98586.88;7397032;19;19926;-69
2023/01/01 02:52:08;;;;;;;;;;;;;;;12.73;66.12;98583.53;7394453;19;19919;-68
2023/01/01 02:54:35;;;;;;;;;;;;;;;12.66;66.56;98587.84;7392459;19;19914;-69
2023/01/01 02:57:06;;;;;;;;;;;;;;;12.49;66.73;98589.63;7392759;19;20257;-69
2023/01/01 03:02:30;;;;;;;;;;;;;;;12.23;67.42;98595.84;7392884;19;19935;-69
2023/01/01 03:05:03;;;;;;;;;;;;;;;12.25;67.54;98596.53;7395014;19;19926;-69
2023/01/01 03:07:43;;;;;;;;;;;;;;;12.16;67.72;98597.47;7394266;19;20336;-69
2023/01/01 03:10:14;;;;;;;;;;;;;;;12.04;67.56;98601.44;7392431;19;19919;-69
2023/01/01 03:12:50;;;;;;;;;;;;;;;12.11;67.35;98586.53;7388389;19;19923;-69
2023/01/01 03:15:23;;;;;;;;;;;;;;;11.96;67.55;98585.50;7390616;19;19919;-69
2023/01/01 03:17:50;;;;;;;;;;;;;;;11.85;68.08;98590.06;7390650;19;19930;-69
2023/01/01 03:20:18;;;;;;;;;;;;;;;11.77;68.59;98592.66;7393568;19;19926;-69
2023/01/01 03:22:44;;;;;;;;;;;;;;;11.53;69.32;98597.81;7388652;19;19922;-69
2023/01/01 03:25:36;;;;;;;;;;;;;;;11.50;69.48;98608.72;7390203;19;19919;-68
2023/01/01 03:28:14;;;;;;;;;;;;;;;11.49;69.79;98591.19;7389546;19;19934;-69
2023/01/01 03:30:41;;;;;;;;;;;;;;;11.56;70.22;98594.88;7390715;19;19930;-69
2023/01/01 03:33:11;;;;;;;;;;;;;;;11.72;69.73;98602.91;7380391;19;19944;-69
2023/01/01 03:35:48;;;;;;;;;;;;;;;11.76;69.57;98612.19;7389609;19;19917;-69
2023/01/01 03:38:21;;;;;;;;;;;;;;;11.90;69.01;98616.13;7390486;19;19922;-69
2023/01/01 03:40:48;;;;;;;;;;;;;;;11.95;69.13;98623.59;7387227;19;19922;-69
2023/01/01 03:43:16;;;;;;;;;;;;;;;11.98;68.53;98625.91;7388401;19;19949;-70
2023/01/01 03:45:43;;;;;;;;;;;;;;;11.95;68.33;98629.72;7390764;19;20377;-70
2023/01/01 03:48:09;;;;;;;;;;;;;;;11.91;68.38;98639.00;7389183;19;19944;-69
2023/01/01 03:50:39;;;;;;;;;;;;;;;11.99;68.26;98630.25;7389289;19;19919;-69
2023/01/01 03:53:26;;;;;;;;;;;;;;;12.02;68.12;98624.63;7387098;19;19915;-69
2023/01/01 03:56:03;;;;;;;;;;;;;;;11.99;68.58;98633.72;7389605;19;19918;-69
2023/01/01 03:58:34;;;;;;;;;;;;;;;12.08;68.22;98629.28;7388037;19;19944;-69
2023/01/01 04:01:03;;;;;;;;;;;;;;;12.03;68.61;98621.81;7388271;19;19944;-69
2023/01/01 04:03:29;;;;;;;;;;;;;;;12.13;67.94;98629.63;7389465;19;19925;-69
2023/01/01 04:05:56;;;;;;;;;;;;;;;12.05;68.13;98630.44;7391531;19;19986;-69
2023/01/01 04:08:22;;;;;;;;;;;;;;;12.06;67.77;98641.88;7389052;19;20465;-69
2023/01/01 04:10:51;;;;;;;;;;;;;;;11.93;68.13;98628.19;7381838;19;19919;-69
2023/01/01 04:13:17;;;;;;;;;;;;;;;11.79;68.36;98635.72;7389739;19;19915;-69
2023/01/01 04:15:44;;;;;;;;;;;;;;;11.78;69.01;98643.84;7391005;19;19922;-69
2023/01/01 04:18:11;;;;;;;;;;;;;;;11.74;68.72;98639.84;7391722;19;19923;-69
2023/01/01 04:20:38;;;;;;;;;;;;;;;11.64;69.50;98639.97;7392255;19;19974;-69
2023/01/01 04:23:04;;;;;;;;;;;;;;;11.73;68.90;98636.38;7390200;19;19914;-69
2023/01/01 04:25:31;;;;;;;;;;;;;;;11.63;69.41;98632.97;7392677;19;19926;-70
2023/01/01 04:27:57;;;;;;;;;;;;;;;11.73;69.28;98635.53;7388196;19;19929;-69
2023/01/01 04:30:24;;;;;;;;;;;;;;;11.79;68.62;98617.16;7393184;19;19952;-69
2023/01/01 04:32:51;;;;;;;;;;;;;;;11.81;68.55;98625.81;7388915;19;19923;-69
2023/01/01 04:35:17;;;;;;;;;;;;;;;11.64;68.41;98618.75;7389526;19;19915;-69
2023/01/01 04:37:44;;;;;;;;;;;;;;;11.66;68.70;98616.75;7389625;19;19928;-69
2023/01/01 04:40:12;;;;;;;;;;;;;;;11.56;68.87;98624.03;7392817;19;19927;-69
2023/01/01 04:42:38;;;;;;;;;;;;;;;11.51;69.10;98613.06;7386751;19;19923;-69
2023/01/01 04:45:05;;;;;;;;;;;;;;;11.42;68.95;98618.28;7390134;19;19940;-70
2023/01/01 04:47:31;;;;;;;;;;;;;;;11.34;69.13;98607.63;7391717;19;19918;-69
2023/01/01 04:49:58;;;;;;;;;;;;;;;11.24;69.60;98609.53;7389998;19;19926;-69
2023/01/01 04:52:25;;;;;;;;;;;;;;;11.15;70.08;98611.28;7389199;19;19927;-69
2023/01/01 04:54:51;;;;;;;;;;;;;;;11.14;69.77;98619.41;7388791;19;19952;-69
2023/01/01 04:57:18;;;;;;;;;;;;;;;11.07;70.40;98615.69;7389406;19;19923;-69
2023/01/01 04:59:44;;;;;;;;;;;;;;;11.02;70.51;98618.78;7387232;19;20260;-69
2023/01/01 05:02:11;;;;;;;;;;;;;;;11.00;70.61;98620.75;7390082;19;19922;-68
2023/01/01 05:04:37;;;;;;;;;;;;;;;10.99;70.83;98619.94;7391029;19;19922;-69
2023/01/01 05:07:04;;;;;;;;;;;;;;;11.05;70.38;98625.59;7390716;19;20263;-69
2023/01/01 05:09:31;;;;;;;;;;;;;;;11.01;70.63;98626.91;7391785;19;20363;-69
2023/01/01 05:11:57;;;;;;;;;;;;;;;10.97;70.86;98643.06;7391692;19;19915;-69
2023/01/01 05:14:25;;;;;;;;;;;;;;;10.91;71.20;98632.28;7389000;19;19927;-69
2023/01/01 05:16:51;;;;;;;;;;;;;;;11.04;70.89;98635.38;7392190;19;19955;-69
2023/01/01 05:19:18;;;;;;;;;;;;;;;11.00;70.79;98639.28;7391421;19;20157;-69
2023/01/01 05:21:45;;;;;;;;;;;;;;;10.95;71.43;98631.81;7387857;19;19919;-69
2023/01/01 05:24:12;;;;;;;;;;;;;;;11.19;71.67;98630.38;7388492;19;19926;-69
2023/01/01 05:26:42;;;;;;;;;;;;;;;11.38;70.78;98643.41;7389768;19;19944;-69
2023/01/01 05:29:09;;;;;;;;;;;;;;;11.48;70.84;98637.19;7389227;19;19926;-69
2023/01/01 05:31:42;;;;;;;;;;;;;;;11.61;70.44;98640.25;7389483;19;19923;-69
2023/01/01 05:34:08;;;;;;;;;;;;;;;11.58;69.94;98644.03;7391210;19;20251;-69
2023/01/01 05:36:37;;;;;;;;;;;;;;;11.52;70.16;98636.72;7387666;19;20425;-69
2023/01/01 05:39:05;;;;;;;;;;;;;;;11.69;69.97;98640.34;7387192;19;19923;-69
2023/01/01 05:41:35;;;;;;;;;;;;;;;11.74;69.48;98638.03;7383964;19;20353;-69
2023/01/01 05:44:02;;;;;;;;;;;;;;;11.71;69.82;98648.94;7384730;19;20329;-69
2023/01/01 05:46:28;;;;;;;;;;;;;;;11.63;69.78;98647.06;7388168;19;19923;-69
2023/01/01 05:48:55;;;;;;;;;;;;;;;11.72;69.63;98645.31;7388903;19;19919;-69
2023/01/01 05:51:23;;;;;;;;;;;;;;;11.83;69.62;98650.34;7385441;19;20519;-69
2023/01/01 05:53:49;;;;;;;;;;;;;;;11.85;69.06;98653.69;7379128;19;19918;-69
2023/01/01 05:56:16;;;;;;;;;;;;;;;11.87;69.12;98645.56;7388402;19;19927;-69
2023/01/01 05:58:42;;;;;;;;;;;;;;;11.83;69.04;98646.88;7389564;19;19947;-69
2023/01/01 06:01:16;;;;;;;;;;;;;;;12.03;68.47;98643.03;7383906;19;19927;-69
2023/01/01 06:03:43;;;;;;;;;;;;;;;12.11;68.16;98638.75;7388352;19;19918;-69
2023/01/01 06:06:10;;;;;;;;;;;;;;;12.10;68.12;98653.00;7391000;19;19915;-70
2023/01/01 06:08:37;;;;;;;;;;;;;;;12.03;68.34;98658.09;7388020;19;19940;-69
2023/01/01 06:11:04;;;;;;;;;;;;;;;11.99;68.75;98657.59;7390367;19;19930;-69
2023/01/01 06:13:31;;;;;;;;;;;;;;;12.07;68.21;98662.09;7386824;19;19922;-69
2023/01/01 06:15:58;;;;;;;;;;;;;;;12.21;67.86;98664.16;7382248;19;20344;-69
2023/01/01 06:18:24;;;;;;;;;;;;;;;12.18;67.76;98672.44;7388677;19;20261;-69
2023/01/01 06:20:52;;;;;;;;;;;;;;;12.24;67.61;98670.94;7388212;19;20021;-70
2023/01/01 06:23:18;;;;;;;;;;;;;;;12.32;67.40;98675.47;7384138;19;19922;-69
2023/01/01 06:25:45;;;;;;;;;;;;;;;12.29;67.21;98668.66;7386532;19;19927;-69
2023/01/01 06:28:11;;;;;;;;;;;;;;;12.24;67.35;98666.50;7389994;19;19930;-70
2023/01/01 06:30:38;;;;;;;;;;;;;;;12.14;67.57;98676.41;7389878;19;19933;-69
2023/01/01 06:33:05;;;;;;;;;;;;;;;12.22;67.89;98675.63;7375470;19;20265;-71
2023/01/01 06:35:31;;;;;;;;;;;;;;;12.19;67.52;98674.09;7378806;19;20332;-72
2023/01/01 06:37:58;;;;;;;;;;;;;;;12.13;67.64;98673.91;7386387;19;19952;-71
2023/01/01 06:40:25;;;;;;;;;;;;;;;12.21;67.51;98677.41;7385975;19;19956;-73
2023/01/01 06:42:51;;;;;;;;;;;;;;;12.08;67.78;98677.88;7387409;19;19915;-72
2023/01/01 06:45:18;;;;;;;;;;;;;;;12.08;67.75;98677.88;7387906;19;19923;-72
2023/01/01 06:47:44;;;;;;;;;;;;;;;12.08;67.83;98677.00;7383071;19;19922;-72
2023/01/01 06:50:11;;;;;;;;;;;;;;;12.05;67.84;98672.03;7388186;19;19923;-72
2023/01/01 06:52:37;;;;;;;;;;;;;;;12.04;67.89;98670.38;7381584;19;20268;-72
2023/01/01 06:55:04;;;;;;;;;;;;;;;12.15;67.40;98678.06;7391369;19;19930;-72
2023/01/01 06:57:33;;;;;;;;;;;;;;;12.13;67.48;98674.72;7392994;19;19961;-72
2023/01/01 06:59:59;;;;;;;;;;;;;;;12.17;67.71;98673.44;7392096;19;19915;-73
2023/01/01 07:02:26;;;;;;;;;;;;;;;12.15;67.40;98675.41;7391470;19;19923;-72
2023/01/01 07:04:53;;;;;;;;;;;;;;;12.39;66.58;98679.97;7390933;19;20006;-72
2023/01/01 07:07:19;;;;;;;;;;;;;;;12.30;66.86;98668.50;7392900;19;20173;-72
2023/01/01 07:09:46;;;;;;;;;;;;;;;12.28;66.88;98675.78;7396124;19;19919;-71
2023/01/01 07:12:12;;;;;;;;;;;;;;;12.15;66.93;98682.53;7391707;19;20340;-72
2023/01/01 07:14:39;;;;;;;;;;;;;;;12.13;67.31;98689.81;7390765;19;19936;-72
2023/01/01 07:17:05;;;;;;;;;;;;;;;12.15;66.95;98683.34;7390988;19;19922;-72
2023/01/01 07:19:32;;;;;;;;;;;;;;;12.27;66.54;98684.75;7391886;19;20284;-72
2023/01/01 07:21:58;;;;;;;;;;;;;;;12.30;66.29;98687.09;7391266;19;20373;-72
2023/01/01 07:24:25;;;;;;;;;;;;;;;12.46;65.98;98678.34;7390760;19;19948;-72
2023/01/01 07:26:51;;;;;;;;;;;;;;;12.42;65.88;98684.97;7392276;19;19918;-72
2023/01/01 07:29:18;;;;;;;;;;;;;;;12.57;65.60;98687.84;7395585;19;19952;-72
2023/01/01 07:31:44;;;;;;;;;;;;;;;12.62;65.29;98690.03;7391472;19;19941;-72
2023/01/01 07:34:12;;;;;;;;;;;;;;;12.62;65.29;98698.81;7391474;19;19948;-72
2023/01/01 07:36:38;;;;;;;;;;;;;;;12.60;65.44;98695.47;7395052;19;19933;-72
2023/01/01 07:39:05;;;;;;;;;;;;;;;12.55;64.79;98696.97;7395356;19;19918;-72
2023/01/01 07:41:31;;;;;;;;;;;;;;;12.72;64.63;98699.50;7383402;19;19942;-72
2023/01/01 07:43:58;;;;;;;;;;;;;;;12.79;64.66;98706.81;7393190;19;19952;-72
2023/01/01 07:46:25;;;;;;;;;;;;;;;12.85;64.57;98714.13;7394054;19;19925;-72
2023/01/01 07:48:51;;;;;;;;;;;;;;;12.90;64.49;98717.13;7383470;19;19926;-73
2023/01/01 07:51:18;;;;;;;;;;;;;;;12.81;64.49;98720.78;7387268;19;19919;-73
2023/01/01 07:53:45;;;;;;;;;;;;;;;12.83;64.33;98729.41;7379935;19;19923;-72
2023/01/01 07:56:11;;;;;;;;;;;;;;;12.84;64.44;98737.22;7385161;19;19926;-72
2023/01/01 07:58:41;;;;;;;;;;;;;;;12.84;64.39;98723.09;7363153;19;21240;-72
2023/01/01 08:01:10;;;;;;;;;;;;;;;12.86;64.55;98739.72;7387441;19;19947;-72
2023/01/01 08:03:37;;;;;;;;;;;;;;;12.84;64.80;98749.66;7388807;19;20018;-72
2023/01/01 08:06:11;;;;;;;;;;;;;;;12.83;64.50;98746.19;7388078;19;19939;-74
2023/01/01 08:08:37;;;;;;;;;;;;;;;12.82;64.43;98749.84;7390021;19;19934;-74
2023/01/01 08:11:04;;;;;;;;;;;;;;;12.92;64.12;98747.84;7390517;19;19922;-73
2023/01/01 08:13:30;;;;;;;;;;;;;;;12.86;64.29;98751.16;7383241;19;20336;-73
2023/01/01 08:15:57;;;;;;;;;;;;;;;12.86;64.46;98750.34;7393404;19;20372;-74
2023/01/01 08:18:24;;;;;;;;;;;;;;;12.90;63.90;98754.31;7391201;19;19918;-73
2023/01/01 08:20:51;;;;;;;;;;;;;;;12.87;63.75;98754.63;7389235;19;20326;-73
2023/01/01 08:23:17;;;;;;;;;;;;;;;12.91;63.95;98759.47;7387854;19;20257;-73
2023/01/01 08:25:44;;;;;;;;;;;;;;;12.91;63.81;98758.66;7391219;19;20344;-73
2023/01/01 08:28:10;;;;;;;;;;;;;;;12.96;63.81;98765.13;7387933;19;19951;-73
2023/01/01 08:30:37;;;;;;;;;;;;;;;13.02;63.73;98766.31;7390968;19;19911;-73
2023/01/01 08:33:03;;;;;;;;;;;;;;;12.94;63.80;98768.94;7389924;19;19922;-74
2023/01/01 08:35:30;;;;;;;;;;;;;;;13.02;63.91;98768.13;7389333;19;19948;-73
2023/01/01 08:37:56;;;;;;;;;;;;;;;13.00;64.21;98772.78;7386463;19;19925;-73
2023/01/01 08:40:23;;;;;;;;;;;;;;;12.99;64.31;98765.81;7383088;19;19926;-74
2023/01/01 08:42:49;;;;;;;;;;;;;;;12.96;64.49;98777.59;7377605;19;19927;-73
2023/01/01 08:45:16;;;;;;;;;;;;;;;12.84;64.52;98778.88;7387200;19;19918;-72
2023/01/01 08:47:46;;;;;;;;;;;;;;;12.95;64.53;98789.19;7389114;19;19919;-74
2023/01/01 08:50:12;;;;;;;;;;;;;;;12.95;64.92;98790.03;7387252;19;20533;-73
2023/01/01 08:52:39;;;;;;;;;;;;;;;12.91;65.15;98787.84;7384082;19;19956;-73
2023/01/01 08:55:06;;;;;;;;;;;;;;;12.93;65.02;98794.69;7387417;19;19918;-73
2023/01/01 08:57:32;;;;;;;;;;;;;;;12.98;65.34;98796.84;7384368;19;19943;-73
2023/01/01 08:59:59;;;;;;;;;;;;;;;13.02;64.90;98798.19;7389095;19;19915;-74
2023/01/01 09:02:29;;;;;;;;;;;;;;;13.11;65.16;98802.53;7388084;19;19918;-72
2023/01/01 09:04:56;;;;;;;;;;;;;;;13.20;65.28;98805.22;7386720;19;19938;-73
2023/01/01 09:07:23;;;;;;;;;;;;;;;13.24;65.21;98801.22;7388490;19;19930;-73
2023/01/01 09:09:49;;;;;;;;;;;;;;;13.34;64.55;98794.81;7386203;19;19911;-73
2023/01/01 09:12:16;;;;;;;;;;;;;;;13.47;63.42;98794.34;7388713;19;19922;-73
2023/01/01 09:14:45;;;;;;;;;;;;;;;13.60;62.77;98807.16;7385989;19;19931;-73
2023/01/01 09:17:12;;;;;;;;;;;;;;;13.78;62.42;98801.69;7386729;19;20406;-73
2023/01/01 09:19:38;;;;;;;;;;;;;;;13.83;62.45;98804.69;7389501;19;21751;-73
2023/01/01 09:22:09;;;;;;;;;;;;;;;13.77;61.78;98802.66;7388878;19;19926;-74
2023/01/01 09:24:35;;;;;;;;;;;;;;;13.97;61.57;98801.34;7388152;19;19915;-73
2023/01/01 09:27:02;;;;;;;;;;;;;;;13.98;61.63;98813.66;7389051;19;19944;-74
2023/01/01 09:29:32;;;;;;;;;;;;;;;14.01;60.95;98810.66;7390592;19;20369;-73
2023/01/01 09:31:58;;;;;;;;;;;;;;;14.11;60.00;98820.28;7391501;19;19952;-73
2023/01/01 09:34:25;;;;;;;;;;;;;;;14.14;59.68;98819.94;7384636;19;19925;-72
2023/01/01 09:36:52;;;;;;;;;;;;;;;14.26;59.33;98810.63;7386970;19;20342;-73
2023/01/01 09:39:18;;;;;;;;;;;;;;;14.38;58.31;98814.63;7388546;19;20240;-73
2023/01/01 09:41:45;;;;;;;;;;;;;;;14.63;57.81;98809.25;7387183;19;19918;-73
2023/01/01 09:44:41;;;;;;;;;;;;;;;14.65;56.62;98809.91;7387566;19;20499;-73
2023/01/01 09:47:28;;;;;;;;;;;;;;;14.80;56.66;98808.22;7387861;19;20384;-73
2023/01/01 09:49:56;;;;;;;;;;;;;;;15.07;56.75;98806.94;7387805;19;19907;-74
2023/01/01 09:52:22;;;;;;;;;;;;;;;15.22;56.41;98811.50;7386699;19;20244;-74
2023/01/01 09:54:50;;;;;;;;;;;;;;;15.29;57.09;98815.97;7386586;19;19918;-74
2023/01/01 09:57:17;;;;;;;;;;;;;;;15.39;56.99;98812.25;7383645;19;19919;-73
2023/01/01 09:59:45;;;;;;;;;;;;;;;15.50;57.45;98822.53;7385273;19;19919;-74
2023/01/01 10:02:15;;;;;;;;;;;;;;;15.53;56.56;98816.81;7386782;19;20343;-74
2023/01/01 10:04:42;;;;;;;;;;;;;;;15.60;57.20;98817.78;7383461;19;19923;-73
2023/01/01 10:07:20;;;;;;;;;;;;;;;15.71;57.01;98813.91;7383145;19;19926;-74
2023/01/01 10:09:51;;;;;;;;;;;;;;;15.74;56.28;98813.53;7387718;19;20397;-73
2023/01/01 10:12:39;;;;;;;;;;;;;;;15.72;55.50;98811.06;7385881;19;19939;-73
2023/01/01 10:15:09;;;;;;;;;;;;;;;15.92;55.86;98800.72;7382726;19;19923;-73
2023/01/01 10:17:42;;;;;;;;;;;;;;;15.88;54.58;98804.78;7348335;19;19929;-73
2023/01/01 10:20:29;;;;;;;;;;;;;;;15.80;54.32;98803.00;7348184;19;20360;-72
2023/01/01 10:23:00;;;;;;;;;;;;;;;15.91;54.37;98798.25;7359583;19;19926;-72
2023/01/01 10:25:29;;;;;;;;;;;;;;;15.88;54.26;98790.63;7376375;19;19915;-73
2023/01/01 10:28:08;;;;;;;;;;;;;;;15.95;54.84;98799.53;7378779;19;19922;-72
2023/01/01 10:30:35;;;;;;;;;;;;;;;15.98;54.88;98799.19;7390313;19;19950;-72
2023/01/01 10:33:04;;;;;;;;;;;;;;;15.98;54.93;98802.69;7392026;19;19950;-73
2023/01/01 10:35:35;;;;;;;;;;;;;;;15.80;55.21;98795.00;7392661;19;19917;-73
2023/01/01 10:38:02;;;;;;;;;;;;;;;16.04;54.91;98795.81;7387907;19;20464;-73
2023/01/01 10:40:29;;;;;;;;;;;;;;;16.10;54.13;98789.75;7387796;19;19914;-74
2023/01/01 10:43:02;;;;;;;;;;;;;;;16.30;53.72;98781.19;7387900;19;19948;-71
2023/01/01 10:45:30;;;;;;;;;;;;;;;16.41;53.47;98788.78;7392599;19;19919;-72
2023/01/01 10:48:17;;;;;;;;;;;;;;;16.72;53.45;98787.75;7391668;19;20403;-73
2023/01/01 10:50:58;;;;;;;;;;;;;;;16.98;52.56;98780.16;7397036;19;20507;-73
2023/01/01 10:53:37;;;;;;;;;;;;;;;17.04;52.30;98787.41;7384641;19;19929;-73
2023/01/01 10:56:17;;;;;;;;;;;;;;;17.05;52.29;98786.38;7384343;19;19922;-74
2023/01/01 10:58:45;;;;;;;;;;;;;;;16.98;52.00;98788.16;7391561;19;19925;-73
2023/01/01 11:01:17;;;;;;;;;;;;;;;16.95;52.66;98787.69;7382475;19;19919;-73
2023/01/01 11:04:11;;;;;;;;;;;;;;;17.01;52.50;98781.59;7386661;19;19928;-72
2023/01/01 11:06:42;;;;;;;;;;;;;;;17.15;52.94;98785.28;7390905;19;19910;-73
2023/01/01 11:09:18;;;;;;;;;;;;;;;17.14;52.93;98781.78;7388821;19;19918;-73
2023/01/01 11:11:48;;;;;;;;;;;;;;;17.09;51.93;98770.81;7390826;19;19914;-73
2023/01/01 11:14:19;;;;;;;;;;;;;;;17.10;52.01;98764.44;7388098;19;19930;-74
2023/01/01 11:16:45;;;;;;;;;;;;;;;16.86;52.11;98762.91;7389493;19;19926;-72
2023/01/01 11:19:32;;;;;;;;;;;;;;;17.11;51.97;98769.59;7389262;19;19923;-74
2023/01/01 11:21:59;;;;;;;;;;;;;;;17.18;52.52;98758.16;7389150;19;20650;-73
2023/01/01 11:24:27;;;;;;;;;;;;;;;17.00;52.82;98761.22;7382653;19;19923;-73
2023/01/01 11:27:10;;;;;;;;;;;;;;;17.01;52.35;98755.72;7389912;19;19923;-72
2023/01/01 11:29:39;;;;;;;;;;;;;;;16.94;52.51;98748.63;7391581;19;19952;-72
2023/01/01 11:32:06;;;;;;;;;;;;;;;16.88;52.30;98750.22;7390554;19;20245;-72
2023/01/01 11:34:39;;;;;;;;;;;;;;;17.13;52.47;98761.38;7383792;19;19915;-72
2023/01/01 11:37:22;;;;;;;;;;;;;;;16.91;51.07;98746.34;7392082;19;19954;-72
2023/01/01 11:39:49;;;;;;;;;;;;;;;16.98;51.64;98737.38;7384215;19;19914;-71
2023/01/01 11:42:46;;;;;;;;;;;;;;;16.99;52.41;98725.66;7389727;19;19930;-72
2023/01/01 11:45:21;;;;;;;;;;;;;;;17.17;52.02;98727.06;7392297;19;19944;-73
2023/01/01 11:48:16;;;;;;;;;;;;;;;17.20;52.22;98713.34;7386833;19;19930;-73
2023/01/01 11:50:55;;;;;;;;;;;;;;;17.38;52.00;98710.22;7392530;19;20260;-72
2023/01/01 11:53:22;;;;;;;;;;;;;;;17.26;51.28;98721.41;7388643;19;19926;-73
2023/01/01 11:55:51;;;;;;;;;;;;;;;17.31;51.38;98723.53;7389015;19;19926;-73
2023/01/01 11:58:21;;;;;;;;;;;;;;;17.46;52.04;98710.09;7389783;19;19946;-73
2023/01/01 12:00:48;;;;;;;;;;;;;;;17.34;51.25;98710.59;7387197;19;19923;-72
2023/01/01 12:03:21;;;;;;;;;;;;;;;17.40;51.17;98717.03;7386395;19;20122;-72
2023/01/01 12:06:08;;;;;;;;;;;;;;;17.36;51.24;98706.91;7387206;19;19945;-72
2023/01/01 12:08:38;;;;;;;;;;;;;;;17.47;51.70;98709.06;7388686;19;20363;-72
2023/01/01 12:11:25;;;;;;;;;;;;;;;17.36;50.71;98707.75;7382815;19;19935;-72
2023/01/01 12:13:59;;;;;;;;;;;;;;;17.46;51.18;98707.44;7387969;19;19923;-73
2023/01/01 12:16:31;;;;;;;;;;;;;;;17.34;50.85;98702.56;7388317;19;19919;-73
2023/01/01 12:19:05;;;;;;;;;;;;;;;17.39;49.77;98696.66;7384405;19;20387;-71
2023/01/01 12:21:32;;;;;;;;;;;;;;;17.50;49.51;98693.47;7389712;19;20374;-72
2023/01/01 12:23:58;;;;;;;;;;;;;;;17.58;49.45;98695.16;7379866;19;19940;-72
2023/01/01 12:26:45;;;;;;;;;;;;;;;17.55;48.88;98693.72;7382247;19;20002;-72
2023/01/01 12:29:30;;;;;;;;;;;;;;;17.82;49.99;98683.25;7388713;19;19926;-72
2023/01/01 12:31:56;;;;;;;;;;;;;;;17.70;49.34;98687.47;7388286;19;19919;-72
2023/01/01 12:34:24;;;;;;;;;;;;;;;17.63;49.62;98683.91;7388421;19;20285;-72
2023/01/01 12:36:53;;;;;;;;;;;;;;;17.57;49.07;98676.66;7389326;19;19926;-72
2023/01/01 12:39:25;;;;;;;;;;;;;;;17.47;48.93;98671.63;7387509;19;19927;-71
2023/01/01 12:41:58;;;;;;;;;;;;;;;17.50;48.65;98672.06;7378071;19;19950;-72
2023/01/01 12:44:30;;;;;;;;;;;;;;;17.57;48.42;98672.13;7390765;19;19923;-73
2023/01/01 12:46:57;;;;;;;;;;;;;;;17.61;49.10;98665.34;7389804;19;20361;-74
2023/01/01 12:49:33;;;;;;;;;;;;;;;17.74;49.47;98667.31;7390993;19;19982;-73
2023/01/01 12:52:19;;;;;;;;;;;;;;;17.79;49.57;98670.25;7385054;19;20376;-73
2023/01/01 12:54:48;;;;;;;;;;;;;;;17.61;48.62;98667.22;7391038;19;20344;-73
2023/01/01 12:57:18;;;;;;;;;;;;;;;17.61;48.65;98664.53;7384975;19;19930;-73
2023/01/01 12:59:45;;;;;;;;;;;;;;;17.47;48.84;98655.56;7389565;19;20276;-72
2023/01/01 13:02:13;;;;;;;;;;;;;;;17.55;48.16;98664.28;7385113;19;19923;-73